sensor_id;sensor_type;location;lat;lon;timestamp;P1;durP1;ratioP1;P2;durP2;ratioP2
72087;SDS011;59961;50.232;8.616;2023-11-18T00:00:29;11.50;;;4.85;;
72087;SDS011;59961;50.232;8.616;2023-11-18T00:02:54;10.80;;;4.80;;
72087;SDS011;59961;50.232;8.616;2023-11-18T00:05:19;11.52;;;5.15;;
72087;SDS011;59961;50.232;8.616;2023-11-18T00:07:44;10.03;;;4.70;;
72087;SDS011;59961;50.232;8.616;2023-11-18T00:10:10;12.85;;;5.70;;
72087;SDS011;59961;50.232;8.616;2023-11-18T00:12:35;9.70;;;4.17;;
72087;SDS011;59961;50.232;8.616;2023-11-18T00:15:02;10.80;;;4.90;;
72087;SDS011;59961;50.232;8.616;2023-11-18T00:17:28;9.95;;;4.80;;
72087;SDS011;59961;50.232;8.616;2023-11-18T00:19:53;10.57;;;4.53;;
72087;SDS011;59961;50.232;8.616;2023-11-18T00:22:18;12.57;;;5.37;;
72087;SDS011;59961;50.232;8.616;2023-11-18T00:24:44;11.13;;;4.40;;
72087;SDS011;59961;50.232;8.616;2023-11-18T00:27:09;8.85;;;3.75;;
72087;SDS011;59961;50.232;8.616;2023-11-18T00:29:35;9.93;;;4.10;;
72087;SDS011;59961;50.232;8.616;2023-11-18T00:32:02;8.18;;;3.70;;
72087;SDS011;59961;50.232;8.616;2023-11-18T00:34:28;11.00;;;4.07;;
72087;SDS011;59961;50.232;8.616;2023-11-18T00:36:54;9.80;;;3.77;;
72087;SDS011;59961;50.232;8.616;2023-11-18T00:39:19;9.33;;;3.93;;
72087;SDS011;59961;50.232;8.616;2023-11-18T00:41:45;8.40;;;3.25;;
72087;SDS011;59961;50.232;8.616;2023-11-18T00:44:10;9.32;;;3.92;;
72087;SDS011;59961;50.232;8.616;2023-11-18T00:46:35;8.90;;;3.60;;
72087;SDS011;59961;50.232;8.616;2023-11-18T00:49:01;8.65;;;3.75;;
72087;SDS011;59961;50.232;8.616;2023-11-18T00:51:27;10.63;;;3.97;;
72087;SDS011;59961;50.232;8.616;2023-11-18T00:53:52;9.67;;;3.93;;
72087;SDS011;59961;50.232;8.616;2023-11-18T00:56:19;9.48;;;3.60;;
72087;SDS011;59961;50.232;8.616;2023-11-18T00:58:46;8.90;;;3.60;;
72087;SDS011;59961;50.232;8.616;2023-11-18T01:01:11;8.98;;;3.67;;
72087;SDS011;59961;50.232;8.616;2023-11-18T01:03:36;10.33;;;3.80;;
72087;SDS011;59961;50.232;8.616;2023-11-18T01:06:03;11.55;;;4.03;;
72087;SDS011;59961;50.232;8.616;2023-11-18T01:08:29;9.47;;;3.67;;
72087;SDS011;59961;50.232;8.616;2023-11-18T01:10:55;8.07;;;3.57;;
72087;SDS011;59961;50.232;8.616;2023-11-18T01:13:20;7.87;;;3.40;;
72087;SDS011;59961;50.232;8.616;2023-11-18T01:15:45;10.70;;;3.40;;
72087;SDS011;59961;50.232;8.616;2023-11-18T01:18:10;10.63;;;3.80;;
72087;SDS011;59961;50.232;8.616;2023-11-18T01:20:35;8.80;;;3.63;;
72087;SDS011;59961;50.232;8.616;2023-11-18T01:23:02;10.52;;;3.97;;
72087;SDS011;59961;50.232;8.616;2023-11-18T01:25:27;9.68;;;3.78;;
72087;SDS011;59961;50.232;8.616;2023-11-18T01:27:52;9.63;;;4.30;;
72087;SDS011;59961;50.232;8.616;2023-11-18T01:30:17;9.20;;;3.60;;
72087;SDS011;59961;50.232;8.616;2023-11-18T01:32:43;9.03;;;3.63;;
72087;SDS011;59961;50.232;8.616;2023-11-18T01:35:09;9.37;;;3.60;;
72087;SDS011;59961;50.232;8.616;2023-11-18T01:37:36;8.03;;;3.27;;
72087;SDS011;59961;50.232;8.616;2023-11-18T01:40:02;10.48;;;3.78;;
72087;SDS011;59961;50.232;8.616;2023-11-18T01:42:30;8.60;;;3.15;;
72087;SDS011;59961;50.232;8.616;2023-11-18T01:44:56;9.05;;;3.70;;
72087;SDS011;59961;50.232;8.616;2023-11-18T01:47:21;9.30;;;3.00;;
72087;SDS011;59961;50.232;8.616;2023-11-18T01:49:46;8.18;;;3.22;;
72087;SDS011;59961;50.232;8.616;2023-11-18T01:52:11;6.82;;;2.67;;
72087;SDS011;59961;50.232;8.616;2023-11-18T01:54:37;12.13;;;2.83;;
72087;SDS011;59961;50.232;8.616;2023-11-18T01:57:03;7.80;;;3.17;;
72087;SDS011;59961;50.232;8.616;2023-11-18T01:59:31;8.80;;;3.23;;
72087;SDS011;59961;50.232;8.616;2023-11-18T02:01:58;11.05;;;3.50;;
72087;SDS011;59961;50.232;8.616;2023-11-18T02:04:24;8.25;;;2.90;;
72087;SDS011;59961;50.232;8.616;2023-11-18T02:06:50;5.90;;;2.27;;
72087;SDS011;59961;50.232;8.616;2023-11-18T02:09:16;6.38;;;2.60;;
72087;SDS011;59961;50.232;8.616;2023-11-18T02:11:53;7.80;;;3.10;;
72087;SDS011;59961;50.232;8.616;2023-11-18T02:14:19;9.32;;;2.40;;
72087;SDS011;59961;50.232;8.616;2023-11-18T02:16:45;8.82;;;3.10;;
72087;SDS011;59961;50.232;8.616;2023-11-18T02:19:19;8.07;;;3.15;;
72087;SDS011;59961;50.232;8.616;2023-11-18T02:21:44;8.73;;;2.70;;
72087;SDS011;59961;50.232;8.616;2023-11-18T02:24:10;7.55;;;2.13;;
72087;SDS011;59961;50.232;8.616;2023-11-18T02:26:35;7.22;;;2.60;;
72087;SDS011;59961;50.232;8.616;2023-11-18T02:29:00;11.90;;;3.25;;
72087;SDS011;59961;50.232;8.616;2023-11-18T02:31:27;8.10;;;2.75;;
72087;SDS011;59961;50.232;8.616;2023-11-18T02:33:55;5.80;;;2.38;;
72087;SDS011;59961;50.232;8.616;2023-11-18T02:36:23;9.60;;;2.90;;
72087;SDS011;59961;50.232;8.616;2023-11-18T02:38:51;6.38;;;2.55;;
72087;SDS011;59961;50.232;8.616;2023-11-18T02:41:19;6.82;;;2.80;;
72087;SDS011;59961;50.232;8.616;2023-11-18T02:43:45;6.90;;;2.73;;
72087;SDS011;59961;50.232;8.616;2023-11-18T02:46:12;6.75;;;2.67;;
72087;SDS011;59961;50.232;8.616;2023-11-18T02:48:40;7.88;;;2.58;;
72087;SDS011;59961;50.232;8.616;2023-11-18T02:51:06;6.15;;;2.47;;
72087;SDS011;59961;50.232;8.616;2023-11-18T02:53:33;10.20;;;2.90;;
72087;SDS011;59961;50.232;8.616;2023-11-18T02:55:58;8.02;;;2.85;;
72087;SDS011;59961;50.232;8.616;2023-11-18T02:58:28;7.10;;;2.67;;
72087;SDS011;59961;50.232;8.616;2023-11-18T03:00:53;6.95;;;2.70;;
72087;SDS011;59961;50.232;8.616;2023-11-18T03:03:19;7.85;;;3.05;;
72087;SDS011;59961;50.232;8.616;2023-11-18T03:05:45;10.30;;;3.25;;
72087;SDS011;59961;50.232;8.616;2023-11-18T03:08:12;6.13;;;2.67;;
72087;SDS011;59961;50.232;8.616;2023-11-18T03:10:37;7.33;;;2.47;;
72087;SDS011;59961;50.232;8.616;2023-11-18T03:13:02;7.40;;;2.97;;
72087;SDS011;59961;50.232;8.616;2023-11-18T03:15:28;7.37;;;2.70;;
72087;SDS011;59961;50.232;8.616;2023-11-18T03:17:53;7.55;;;2.80;;
72087;SDS011;59961;50.232;8.616;2023-11-18T03:20:19;7.30;;;2.60;;
72087;SDS011;59961;50.232;8.616;2023-11-18T03:22:45;7.13;;;2.67;;
72087;SDS011;59961;50.232;8.616;2023-11-18T03:25:11;5.70;;;2.40;;
72087;SDS011;59961;50.232;8.616;2023-11-18T03:27:37;8.25;;;3.40;;
72087;SDS011;59961;50.232;8.616;2023-11-18T03:30:02;6.77;;;2.80;;
72087;SDS011;59961;50.232;8.616;2023-11-18T03:32:28;8.63;;;3.17;;
72087;SDS011;59961;50.232;8.616;2023-11-18T03:34:53;5.97;;;3.00;;
72087;SDS011;59961;50.232;8.616;2023-11-18T03:37:18;8.07;;;2.95;;
72087;SDS011;59961;50.232;8.616;2023-11-18T03:39:44;7.30;;;3.03;;
72087;SDS011;59961;50.232;8.616;2023-11-18T03:42:10;8.07;;;3.00;;
72087;SDS011;59961;50.232;8.616;2023-11-18T03:44:35;9.00;;;3.07;;
72087;SDS011;59961;50.232;8.616;2023-11-18T03:47:00;8.25;;;3.35;;
72087;SDS011;59961;50.232;8.616;2023-11-18T03:49:27;10.43;;;3.60;;
72087;SDS011;59961;50.232;8.616;2023-11-18T03:51:53;8.30;;;3.60;;
72087;SDS011;59961;50.232;8.616;2023-11-18T03:54:18;9.50;;;3.67;;
72087;SDS011;59961;50.232;8.616;2023-11-18T03:56:43;11.33;;;4.30;;
72087;SDS011;59961;50.232;8.616;2023-11-18T03:59:08;12.95;;;3.88;;
72087;SDS011;59961;50.232;8.616;2023-11-18T04:01:34;9.13;;;3.67;;
72087;SDS011;59961;50.232;8.616;2023-11-18T04:03:59;9.48;;;3.35;;
72087;SDS011;59961;50.232;8.616;2023-11-18T04:06:24;9.60;;;4.17;;
72087;SDS011;59961;50.232;8.616;2023-11-18T04:08:50;9.35;;;3.72;;
72087;SDS011;59961;50.232;8.616;2023-11-18T04:11:15;9.40;;;3.47;;
72087;SDS011;59961;50.232;8.616;2023-11-18T04:13:40;9.10;;;3.73;;
72087;SDS011;59961;50.232;8.616;2023-11-18T04:16:15;10.80;;;3.95;;
72087;SDS011;59961;50.232;8.616;2023-11-18T04:18:41;10.32;;;4.30;;
72087;SDS011;59961;50.232;8.616;2023-11-18T04:21:07;10.43;;;4.07;;
72087;SDS011;59961;50.232;8.616;2023-11-18T04:23:33;10.27;;;4.57;;
72087;SDS011;59961;50.232;8.616;2023-11-18T04:25:59;11.68;;;4.53;;
72087;SDS011;59961;50.232;8.616;2023-11-18T04:28:24;14.27;;;5.20;;
72087;SDS011;59961;50.232;8.616;2023-11-18T04:30:51;9.75;;;4.45;;
72087;SDS011;59961;50.232;8.616;2023-11-18T04:33:17;8.73;;;3.53;;
72087;SDS011;59961;50.232;8.616;2023-11-18T04:35:43;16.00;;;5.67;;
72087;SDS011;59961;50.232;8.616;2023-11-18T04:38:10;16.80;;;5.13;;
72087;SDS011;59961;50.232;8.616;2023-11-18T04:40:36;15.65;;;6.53;;
72087;SDS011;59961;50.232;8.616;2023-11-18T04:43:03;14.98;;;6.40;;
72087;SDS011;59961;50.232;8.616;2023-11-18T04:45:29;15.63;;;6.35;;
72087;SDS011;59961;50.232;8.616;2023-11-18T04:47:55;14.27;;;6.27;;
72087;SDS011;59961;50.232;8.616;2023-11-18T04:50:20;13.02;;;5.47;;
72087;SDS011;59961;50.232;8.616;2023-11-18T04:52:45;16.27;;;6.63;;
72087;SDS011;59961;50.232;8.616;2023-11-18T04:55:10;12.52;;;5.60;;
72087;SDS011;59961;50.232;8.616;2023-11-18T04:57:38;13.90;;;5.90;;
72087;SDS011;59961;50.232;8.616;2023-11-18T05:00:04;12.70;;;5.75;;
72087;SDS011;59961;50.232;8.616;2023-11-18T05:02:35;13.25;;;5.57;;
72087;SDS011;59961;50.232;8.616;2023-11-18T05:05:00;10.80;;;4.83;;
72087;SDS011;59961;50.232;8.616;2023-11-18T05:07:25;14.10;;;6.20;;
72087;SDS011;59961;50.232;8.616;2023-11-18T05:09:53;15.55;;;6.63;;
72087;SDS011;59961;50.232;8.616;2023-11-18T05:12:18;14.73;;;6.80;;
72087;SDS011;59961;50.232;8.616;2023-11-18T05:14:43;14.75;;;6.55;;
72087;SDS011;59961;50.232;8.616;2023-11-18T05:17:08;12.65;;;5.55;;
72087;SDS011;59961;50.232;8.616;2023-11-18T05:19:33;12.32;;;5.78;;
72087;SDS011;59961;50.232;8.616;2023-11-18T05:21:59;15.33;;;6.90;;
72087;SDS011;59961;50.232;8.616;2023-11-18T05:24:25;12.15;;;5.28;;
72087;SDS011;59961;50.232;8.616;2023-11-18T05:26:50;12.02;;;5.97;;
72087;SDS011;59961;50.232;8.616;2023-11-18T05:29:15;15.70;;;6.10;;
72087;SDS011;59961;50.232;8.616;2023-11-18T05:31:41;17.57;;;6.83;;
72087;SDS011;59961;50.232;8.616;2023-11-18T05:34:07;14.77;;;5.80;;
72087;SDS011;59961;50.232;8.616;2023-11-18T05:36:32;15.87;;;5.93;;
72087;SDS011;59961;50.232;8.616;2023-11-18T05:39:02;15.77;;;6.38;;
72087;SDS011;59961;50.232;8.616;2023-11-18T05:41:28;14.05;;;6.38;;
72087;SDS011;59961;50.232;8.616;2023-11-18T05:43:55;15.65;;;6.25;;
72087;SDS011;59961;50.232;8.616;2023-11-18T05:46:24;14.82;;;5.93;;
72087;SDS011;59961;50.232;8.616;2023-11-18T05:48:54;14.10;;;5.53;;
72087;SDS011;59961;50.232;8.616;2023-11-18T05:51:24;15.57;;;6.22;;
72087;SDS011;59961;50.232;8.616;2023-11-18T05:53:50;15.65;;;6.53;;
72087;SDS011;59961;50.232;8.616;2023-11-18T05:56:16;17.02;;;6.25;;
72087;SDS011;59961;50.232;8.616;2023-11-18T05:58:42;19.67;;;7.17;;
72087;SDS011;59961;50.232;8.616;2023-11-18T06:01:11;15.60;;;6.80;;
72087;SDS011;59961;50.232;8.616;2023-11-18T06:03:37;17.20;;;6.97;;
72087;SDS011;59961;50.232;8.616;2023-11-18T06:06:04;16.90;;;7.20;;
72087;SDS011;59961;50.232;8.616;2023-11-18T06:08:31;14.88;;;6.32;;
72087;SDS011;59961;50.232;8.616;2023-11-18T06:10:57;18.13;;;7.03;;
72087;SDS011;59961;50.232;8.616;2023-11-18T06:13:22;18.27;;;7.37;;
72087;SDS011;59961;50.232;8.616;2023-11-18T06:15:48;15.75;;;7.05;;
72087;SDS011;59961;50.232;8.616;2023-11-18T06:18:16;15.70;;;7.07;;
72087;SDS011;59961;50.232;8.616;2023-11-18T06:20:41;15.52;;;6.50;;
72087;SDS011;59961;50.232;8.616;2023-11-18T06:23:06;17.17;;;7.25;;
72087;SDS011;59961;50.232;8.616;2023-11-18T06:25:31;18.67;;;7.47;;
72087;SDS011;59961;50.232;8.616;2023-11-18T06:27:56;17.37;;;6.57;;
72087;SDS011;59961;50.232;8.616;2023-11-18T06:30:23;17.88;;;6.78;;
72087;SDS011;59961;50.232;8.616;2023-11-18T06:32:48;16.67;;;6.70;;
72087;SDS011;59961;50.232;8.616;2023-11-18T06:35:13;24.17;;;8.55;;
72087;SDS011;59961;50.232;8.616;2023-11-18T06:37:41;21.93;;;6.87;;
72087;SDS011;59961;50.232;8.616;2023-11-18T06:40:07;19.77;;;6.78;;
72087;SDS011;59961;50.232;8.616;2023-11-18T06:42:41;21.95;;;7.32;;
72087;SDS011;59961;50.232;8.616;2023-11-18T06:45:07;22.52;;;7.70;;
72087;SDS011;59961;50.232;8.616;2023-11-18T06:47:34;18.35;;;6.80;;
72087;SDS011;59961;50.232;8.616;2023-11-18T06:50:01;16.90;;;7.10;;
72087;SDS011;59961;50.232;8.616;2023-11-18T06:52:26;20.97;;;7.17;;
72087;SDS011;59961;50.232;8.616;2023-11-18T06:54:51;18.50;;;7.37;;
72087;SDS011;59961;50.232;8.616;2023-11-18T06:57:17;19.38;;;7.90;;
72087;SDS011;59961;50.232;8.616;2023-11-18T06:59:42;19.45;;;7.20;;
72087;SDS011;59961;50.232;8.616;2023-11-18T07:02:07;20.40;;;7.27;;
72087;SDS011;59961;50.232;8.616;2023-11-18T07:04:35;20.00;;;7.63;;
72087;SDS011;59961;50.232;8.616;2023-11-18T07:07:00;20.13;;;7.88;;
72087;SDS011;59961;50.232;8.616;2023-11-18T07:09:26;18.40;;;7.40;;
72087;SDS011;59961;50.232;8.616;2023-11-18T07:11:51;21.37;;;7.50;;
72087;SDS011;59961;50.232;8.616;2023-11-18T07:14:17;19.40;;;7.77;;
72087;SDS011;59961;50.232;8.616;2023-11-18T07:16:42;20.87;;;7.73;;
72087;SDS011;59961;50.232;8.616;2023-11-18T07:19:08;19.98;;;7.20;;
72087;SDS011;59961;50.232;8.616;2023-11-18T07:21:35;21.33;;;7.95;;
72087;SDS011;59961;50.232;8.616;2023-11-18T07:24:00;23.43;;;7.90;;
72087;SDS011;59961;50.232;8.616;2023-11-18T07:26:27;19.55;;;7.60;;
72087;SDS011;59961;50.232;8.616;2023-11-18T07:28:52;20.00;;;7.67;;
72087;SDS011;59961;50.232;8.616;2023-11-18T07:31:18;16.63;;;6.50;;
72087;SDS011;59961;50.232;8.616;2023-11-18T07:33:43;21.17;;;8.05;;
72087;SDS011;59961;50.232;8.616;2023-11-18T07:36:13;18.27;;;6.30;;
72087;SDS011;59961;50.232;8.616;2023-11-18T07:38:38;22.08;;;7.63;;
72087;SDS011;59961;50.232;8.616;2023-11-18T07:41:04;17.20;;;6.82;;
72087;SDS011;59961;50.232;8.616;2023-11-18T07:43:33;16.38;;;6.45;;
72087;SDS011;59961;50.232;8.616;2023-11-18T07:45:58;19.20;;;6.90;;
72087;SDS011;59961;50.232;8.616;2023-11-18T07:48:23;16.70;;;6.90;;
72087;SDS011;59961;50.232;8.616;2023-11-18T07:50:48;19.40;;;7.07;;
72087;SDS011;59961;50.232;8.616;2023-11-18T07:53:13;21.20;;;7.90;;
72087;SDS011;59961;50.232;8.616;2023-11-18T07:55:39;21.20;;;7.30;;
72087;SDS011;59961;50.232;8.616;2023-11-18T07:58:07;15.90;;;6.40;;
72087;SDS011;59961;50.232;8.616;2023-11-18T08:00:38;17.73;;;6.85;;
72087;SDS011;59961;50.232;8.616;2023-11-18T08:03:04;17.50;;;7.75;;
72087;SDS011;59961;50.232;8.616;2023-11-18T08:05:32;17.85;;;6.20;;
72087;SDS011;59961;50.232;8.616;2023-11-18T08:07:58;18.53;;;7.03;;
72087;SDS011;59961;50.232;8.616;2023-11-18T08:10:24;21.25;;;8.00;;
72087;SDS011;59961;50.232;8.616;2023-11-18T08:12:49;16.25;;;6.32;;
72087;SDS011;59961;50.232;8.616;2023-11-18T08:15:17;14.67;;;5.97;;
72087;SDS011;59961;50.232;8.616;2023-11-18T08:17:42;17.27;;;6.70;;
72087;SDS011;59961;50.232;8.616;2023-11-18T08:20:07;15.23;;;6.03;;
72087;SDS011;59961;50.232;8.616;2023-11-18T08:22:39;17.20;;;6.97;;
72087;SDS011;59961;50.232;8.616;2023-11-18T08:25:04;19.13;;;7.03;;
72087;SDS011;59961;50.232;8.616;2023-11-18T08:27:33;14.65;;;6.70;;
72087;SDS011;59961;50.232;8.616;2023-11-18T08:29:58;14.70;;;6.20;;
72087;SDS011;59961;50.232;8.616;2023-11-18T08:32:23;17.47;;;6.53;;
72087;SDS011;59961;50.232;8.616;2023-11-18T08:34:50;17.43;;;6.80;;
72087;SDS011;59961;50.232;8.616;2023-11-18T08:37:15;15.95;;;7.18;;
72087;SDS011;59961;50.232;8.616;2023-11-18T08:39:41;15.43;;;6.80;;
72087;SDS011;59961;50.232;8.616;2023-11-18T08:42:07;15.40;;;6.43;;
72087;SDS011;59961;50.232;8.616;2023-11-18T08:44:32;16.33;;;7.03;;
72087;SDS011;59961;50.232;8.616;2023-11-18T08:46:57;18.03;;;6.67;;
72087;SDS011;59961;50.232;8.616;2023-11-18T08:49:24;19.30;;;7.53;;
72087;SDS011;59961;50.232;8.616;2023-11-18T08:51:50;18.58;;;7.28;;
72087;SDS011;59961;50.232;8.616;2023-11-18T08:54:21;18.10;;;7.43;;
72087;SDS011;59961;50.232;8.616;2023-11-18T08:56:50;19.10;;;7.30;;
72087;SDS011;59961;50.232;8.616;2023-11-18T08:59:17;21.17;;;7.85;;
72087;SDS011;59961;50.232;8.616;2023-11-18T09:01:42;18.20;;;8.20;;
72087;SDS011;59961;50.232;8.616;2023-11-18T09:04:08;18.13;;;7.30;;
72087;SDS011;59961;50.232;8.616;2023-11-18T09:06:35;17.67;;;7.03;;
72087;SDS011;59961;50.232;8.616;2023-11-18T09:09:00;18.57;;;7.70;;
72087;SDS011;59961;50.232;8.616;2023-11-18T09:11:30;23.27;;;8.80;;
72087;SDS011;59961;50.232;8.616;2023-11-18T09:13:57;25.63;;;8.65;;
72087;SDS011;59961;50.232;8.616;2023-11-18T09:16:25;21.27;;;8.05;;
72087;SDS011;59961;50.232;8.616;2023-11-18T09:18:54;21.73;;;8.73;;
72087;SDS011;59961;50.232;8.616;2023-11-18T09:21:19;23.47;;;8.20;;
72087;SDS011;59961;50.232;8.616;2023-11-18T09:23:48;23.27;;;8.73;;
72087;SDS011;59961;50.232;8.616;2023-11-18T09:26:13;22.23;;;9.33;;
72087;SDS011;59961;50.232;8.616;2023-11-18T09:28:39;22.92;;;8.43;;
72087;SDS011;59961;50.232;8.616;2023-11-18T09:31:05;22.23;;;7.70;;
72087;SDS011;59961;50.232;8.616;2023-11-18T09:33:31;31.00;;;9.37;;
72087;SDS011;59961;50.232;8.616;2023-11-18T09:36:00;27.13;;;9.15;;
72087;SDS011;59961;50.232;8.616;2023-11-18T09:38:26;26.20;;;8.40;;
72087;SDS011;59961;50.232;8.616;2023-11-18T09:40:55;25.63;;;9.45;;
72087;SDS011;59961;50.232;8.616;2023-11-18T09:43:20;32.63;;;10.40;;
72087;SDS011;59961;50.232;8.616;2023-11-18T09:45:47;24.27;;;9.70;;
72087;SDS011;59961;50.232;8.616;2023-11-18T09:48:12;23.00;;;8.90;;
72087;SDS011;59961;50.232;8.616;2023-11-18T09:50:42;31.85;;;9.63;;
72087;SDS011;59961;50.232;8.616;2023-11-18T09:53:09;25.23;;;8.77;;
72087;SDS011;59961;50.232;8.616;2023-11-18T09:55:42;32.92;;;10.02;;
72087;SDS011;59961;50.232;8.616;2023-11-18T09:58:12;33.67;;;8.87;;
72087;SDS011;59961;50.232;8.616;2023-11-18T10:00:39;26.38;;;10.63;;
72087;SDS011;59961;50.232;8.616;2023-11-18T10:03:06;31.90;;;10.73;;
72087;SDS011;59961;50.232;8.616;2023-11-18T10:05:33;33.53;;;11.40;;
72087;SDS011;59961;50.232;8.616;2023-11-18T10:07:58;28.10;;;10.10;;
72087;SDS011;59961;50.232;8.616;2023-11-18T10:10:23;25.77;;;9.60;;
72087;SDS011;59961;50.232;8.616;2023-11-18T10:12:51;29.73;;;10.40;;
72087;SDS011;59961;50.232;8.616;2023-11-18T10:15:17;22.77;;;9.87;;
72087;SDS011;59961;50.232;8.616;2023-11-18T10:17:44;31.42;;;10.82;;
72087;SDS011;59961;50.232;8.616;2023-11-18T10:20:42;28.35;;;10.70;;
72087;SDS011;59961;50.232;8.616;2023-11-18T10:23:09;34.03;;;11.10;;
72087;SDS011;59961;50.232;8.616;2023-11-18T10:25:35;32.80;;;10.60;;
72087;SDS011;59961;50.232;8.616;2023-11-18T10:28:05;29.80;;;10.07;;
72087;SDS011;59961;50.232;8.616;2023-11-18T10:30:30;28.05;;;9.70;;
72087;SDS011;59961;50.232;8.616;2023-11-18T10:33:00;27.92;;;10.35;;
72087;SDS011;59961;50.232;8.616;2023-11-18T10:35:32;31.70;;;10.80;;
72087;SDS011;59961;50.232;8.616;2023-11-18T10:37:57;26.95;;;9.95;;
72087;SDS011;59961;50.232;8.616;2023-11-18T10:40:24;34.05;;;11.23;;
72087;SDS011;59961;50.232;8.616;2023-11-18T10:42:49;31.65;;;11.60;;
72087;SDS011;59961;50.232;8.616;2023-11-18T10:45:15;30.30;;;13.00;;
72087;SDS011;59961;50.232;8.616;2023-11-18T10:47:48;33.83;;;11.88;;
72087;SDS011;59961;50.232;8.616;2023-11-18T10:50:13;30.08;;;10.38;;
72087;SDS011;59961;50.232;8.616;2023-11-18T10:52:38;28.93;;;11.30;;
72087;SDS011;59961;50.232;8.616;2023-11-18T10:55:05;39.27;;;13.40;;
72087;SDS011;59961;50.232;8.616;2023-11-18T10:57:36;38.30;;;13.15;;
72087;SDS011;59961;50.232;8.616;2023-11-18T11:00:04;38.67;;;12.10;;
72087;SDS011;59961;50.232;8.616;2023-11-18T11:02:38;35.53;;;12.57;;
72087;SDS011;59961;50.232;8.616;2023-11-18T11:05:06;29.73;;;11.20;;
72087;SDS011;59961;50.232;8.616;2023-11-18T11:07:32;35.07;;;12.47;;
72087;SDS011;59961;50.232;8.616;2023-11-18T11:09:57;34.72;;;12.05;;
72087;SDS011;59961;50.232;8.616;2023-11-18T11:12:23;35.27;;;11.10;;
72087;SDS011;59961;50.232;8.616;2023-11-18T11:15:38;36.83;;;12.63;;
72087;SDS011;59961;50.232;8.616;2023-11-18T11:17:39;36.50;;;11.60;;
72087;SDS011;59961;50.232;8.616;2023-11-18T11:20:08;38.58;;;13.10;;
72087;SDS011;59961;50.232;8.616;2023-11-18T11:22:56;37.33;;;13.05;;
72087;SDS011;59961;50.232;8.616;2023-11-18T11:25:35;39.88;;;12.98;;
72087;SDS011;59961;50.232;8.616;2023-11-18T11:28:11;42.85;;;12.73;;
72087;SDS011;59961;50.232;8.616;2023-11-18T11:30:40;43.73;;;12.83;;
72087;SDS011;59961;50.232;8.616;2023-11-18T11:33:29;37.15;;;12.25;;
72087;SDS011;59961;50.232;8.616;2023-11-18T11:35:57;42.15;;;12.70;;
72087;SDS011;59961;50.232;8.616;2023-11-18T11:38:24;38.20;;;13.55;;
72087;SDS011;59961;50.232;8.616;2023-11-18T11:40:51;37.72;;;13.80;;
72087;SDS011;59961;50.232;8.616;2023-11-18T11:43:19;41.47;;;12.50;;
72087;SDS011;59961;50.232;8.616;2023-11-18T11:45:46;39.03;;;13.45;;
72087;SDS011;59961;50.232;8.616;2023-11-18T11:48:12;41.38;;;13.82;;
72087;SDS011;59961;50.232;8.616;2023-11-18T11:53:20;39.17;;;14.00;;
72087;SDS011;59961;50.232;8.616;2023-11-18T11:55:49;41.90;;;14.50;;
72087;SDS011;59961;50.232;8.616;2023-11-18T11:58:26;42.85;;;15.02;;
72087;SDS011;59961;50.232;8.616;2023-11-18T12:00:51;39.97;;;13.27;;
72087;SDS011;59961;50.232;8.616;2023-11-18T12:03:17;44.30;;;14.30;;
72087;SDS011;59961;50.232;8.616;2023-11-18T12:05:43;40.30;;;13.13;;
72087;SDS011;59961;50.232;8.616;2023-11-18T12:08:10;46.70;;;13.83;;
72087;SDS011;59961;50.232;8.616;2023-11-18T12:10:38;39.15;;;13.38;;
72087;SDS011;59961;50.232;8.616;2023-11-18T12:13:06;38.40;;;14.67;;
72087;SDS011;59961;50.232;8.616;2023-11-18T12:18:19;36.95;;;12.45;;
72087;SDS011;59961;50.232;8.616;2023-11-18T12:20:46;44.53;;;14.30;;
72087;SDS011;59961;50.232;8.616;2023-11-18T12:23:22;39.93;;;13.73;;
72087;SDS011;59961;50.232;8.616;2023-11-18T12:25:50;36.92;;;12.65;;
72087;SDS011;59961;50.232;8.616;2023-11-18T12:28:19;45.22;;;14.40;;
72087;SDS011;59961;50.232;8.616;2023-11-18T12:30:51;40.00;;;13.77;;
72087;SDS011;59961;50.232;8.616;2023-11-18T12:33:17;44.47;;;14.40;;
72087;SDS011;59961;50.232;8.616;2023-11-18T12:43:15;39.78;;;13.18;;
72087;SDS011;59961;50.232;8.616;2023-11-18T12:45:43;35.45;;;13.38;;
72087;SDS011;59961;50.232;8.616;2023-11-18T12:48:17;41.60;;;14.15;;
72087;SDS011;59961;50.232;8.616;2023-11-18T12:50:51;40.13;;;13.55;;
72087;SDS011;59961;50.232;8.616;2023-11-18T12:53:16;44.80;;;14.27;;
72087;SDS011;59961;50.232;8.616;2023-11-18T12:55:42;43.87;;;14.17;;
72087;SDS011;59961;50.232;8.616;2023-11-18T12:58:07;43.83;;;15.23;;
72087;SDS011;59961;50.232;8.616;2023-11-18T13:00:33;44.97;;;14.73;;
72087;SDS011;59961;50.232;8.616;2023-11-18T13:03:00;37.55;;;12.57;;
72087;SDS011;59961;50.232;8.616;2023-11-18T13:05:26;37.10;;;12.43;;
72087;SDS011;59961;50.232;8.616;2023-11-18T13:07:55;35.90;;;13.15;;
72087;SDS011;59961;50.232;8.616;2023-11-18T13:10:21;37.63;;;12.13;;
72087;SDS011;59961;50.232;8.616;2023-11-18T13:12:47;36.00;;;13.00;;
72087;SDS011;59961;50.232;8.616;2023-11-18T13:15:12;39.28;;;13.88;;
72087;SDS011;59961;50.232;8.616;2023-11-18T13:17:37;30.37;;;12.40;;
72087;SDS011;59961;50.232;8.616;2023-11-18T13:20:12;36.33;;;14.27;;
72087;SDS011;59961;50.232;8.616;2023-11-18T13:22:38;31.35;;;11.57;;
72087;SDS011;59961;50.232;8.616;2023-11-18T13:25:04;33.25;;;12.15;;
72087;SDS011;59961;50.232;8.616;2023-11-18T13:27:30;33.90;;;13.37;;
72087;SDS011;59961;50.232;8.616;2023-11-18T13:29:57;31.75;;;13.60;;
72087;SDS011;59961;50.232;8.616;2023-11-18T13:32:23;38.30;;;14.10;;
72087;SDS011;59961;50.232;8.616;2023-11-18T13:34:48;35.30;;;13.03;;
72087;SDS011;59961;50.232;8.616;2023-11-18T13:37:13;34.58;;;13.02;;
72087;SDS011;59961;50.232;8.616;2023-11-18T13:39:41;36.38;;;12.70;;
72087;SDS011;59961;50.232;8.616;2023-11-18T13:42:26;33.38;;;12.52;;
72087;SDS011;59961;50.232;8.616;2023-11-18T13:44:53;31.10;;;13.25;;
72087;SDS011;59961;50.232;8.616;2023-11-18T13:47:19;31.80;;;13.60;;
72087;SDS011;59961;50.232;8.616;2023-11-18T13:49:45;34.97;;;13.27;;
72087;SDS011;59961;50.232;8.616;2023-11-18T13:52:12;36.72;;;12.80;;
72087;SDS011;59961;50.232;8.616;2023-11-18T13:54:38;36.72;;;12.63;;
72087;SDS011;59961;50.232;8.616;2023-11-18T13:57:03;33.83;;;13.00;;
72087;SDS011;59961;50.232;8.616;2023-11-18T13:59:29;31.87;;;13.07;;
72087;SDS011;59961;50.232;8.616;2023-11-18T14:01:56;32.63;;;12.90;;
72087;SDS011;59961;50.232;8.616;2023-11-18T14:04:24;31.88;;;12.63;;
72087;SDS011;59961;50.232;8.616;2023-11-18T14:06:52;35.55;;;12.77;;
72087;SDS011;59961;50.232;8.616;2023-11-18T14:09:21;33.87;;;12.40;;
72087;SDS011;59961;50.232;8.616;2023-11-18T14:11:47;32.83;;;12.27;;
72087;SDS011;59961;50.232;8.616;2023-11-18T14:14:12;29.88;;;13.30;;
72087;SDS011;59961;50.232;8.616;2023-11-18T14:16:37;32.00;;;10.85;;
72087;SDS011;59961;50.232;8.616;2023-11-18T14:19:03;31.83;;;11.82;;
72087;SDS011;59961;50.232;8.616;2023-11-18T14:21:30;24.87;;;10.60;;
72087;SDS011;59961;50.232;8.616;2023-11-18T14:23:56;30.98;;;11.90;;
72087;SDS011;59961;50.232;8.616;2023-11-18T14:26:25;22.05;;;9.98;;
72087;SDS011;59961;50.232;8.616;2023-11-18T14:28:50;17.97;;;7.80;;
72087;SDS011;59961;50.232;8.616;2023-11-18T14:31:15;18.10;;;6.88;;
72087;SDS011;59961;50.232;8.616;2023-11-18T14:33:40;14.65;;;8.20;;
72087;SDS011;59961;50.232;8.616;2023-11-18T14:36:05;13.20;;;6.93;;
72087;SDS011;59961;50.232;8.616;2023-11-18T14:38:31;15.15;;;7.40;;
72087;SDS011;59961;50.232;8.616;2023-11-18T14:40:56;14.07;;;6.87;;
72087;SDS011;59961;50.232;8.616;2023-11-18T14:43:22;12.60;;;6.28;;